createdAt,value
2022-10-19T00:01:16.426Z,19.17
2022-10-19T00:03:22.430Z,18.63
2022-10-19T00:05:26.742Z,19.40
2022-10-19T00:07:31.574Z,20.20
2022-10-19T00:09:35.239Z,20.70
2022-10-19T00:11:40.829Z,21.07
2022-10-19T00:13:44.068Z,19.80
2022-10-19T00:15:47.394Z,20.70
2022-10-19T00:17:51.040Z,23.17
2022-10-19T00:19:54.495Z,18.73
2022-10-19T00:21:58.012Z,19.77
2022-10-19T00:24:02.700Z,18.67
2022-10-19T00:26:06.304Z,18.40
2022-10-19T00:28:09.767Z,20.30
2022-10-19T00:30:13.242Z,19.10
2022-10-19T00:32:16.684Z,19.40
2022-10-19T00:34:20.293Z,19.17
2022-10-19T00:36:25.552Z,18.80
2022-10-19T00:38:29.203Z,18.63
2022-10-19T00:40:40.147Z,17.67
2022-10-19T00:42:43.466Z,16.80
2022-10-19T00:45:06.826Z,17.10
2022-10-19T00:47:10.269Z,18.03
2022-10-19T00:49:16.725Z,17.07
2022-10-19T00:51:20.481Z,15.97
2022-10-19T00:53:26.902Z,16.73
2022-10-19T00:55:30.392Z,17.00
2022-10-19T00:57:36.931Z,15.60
2022-10-19T00:59:41.534Z,14.93
2022-10-19T01:01:46.624Z,16.23
2022-10-19T01:03:50.263Z,17.30
2022-10-19T01:05:53.454Z,16.80
2022-10-19T01:07:58.069Z,14.80
2022-10-19T01:10:02.533Z,14.53
2022-10-19T01:12:13.002Z,15.80
2022-10-19T01:14:29.850Z,12.30
2022-10-19T01:16:38.073Z,13.07
2022-10-19T01:18:46.377Z,12.13
2022-10-19T01:21:14.747Z,12.57
2022-10-19T01:23:40.152Z,11.43
2022-10-19T01:25:51.774Z,13.90
2022-10-19T01:28:04.655Z,10.80
2022-10-19T01:30:17.303Z,12.30
2022-10-19T01:32:27.061Z,11.50
2022-10-19T01:34:35.620Z,11.70
2022-10-19T01:36:44.374Z,12.43
2022-10-19T01:38:52.841Z,11.33
2022-10-19T01:41:00.776Z,9.80
2022-10-19T01:43:11.200Z,11.30
2022-10-19T01:45:20.738Z,10.57
2022-10-19T01:47:26.127Z,11.23
2022-10-19T01:49:34.048Z,11.67
2022-10-19T01:51:40.913Z,12.90
2022-10-19T01:53:50.591Z,10.90
2022-10-19T01:55:55.990Z,10.83
2022-10-19T01:58:07.189Z,11.77
2022-10-19T02:00:15.821Z,12.13
2022-10-19T02:02:21.894Z,12.00
2022-10-19T02:04:25.621Z,10.70
2022-10-19T02:06:30.158Z,11.63
2022-10-19T02:08:39.529Z,11.90
2022-10-19T02:10:45.071Z,11.57
2022-10-19T02:12:49.230Z,10.90
2022-10-19T02:14:55.255Z,11.40
2022-10-19T02:17:02.986Z,11.10
2022-10-19T02:19:09.358Z,10.83
2022-10-19T02:21:12.557Z,12.13
2022-10-19T02:23:21.811Z,11.23
2022-10-19T02:25:26.197Z,11.50
2022-10-19T02:27:29.513Z,10.70
2022-10-19T02:29:33.539Z,11.57
2022-10-19T02:31:37.186Z,9.90
2022-10-19T02:33:40.584Z,11.50
2022-10-19T02:35:45.509Z,10.40
2022-10-19T02:37:48.697Z,10.80
2022-10-19T02:39:52.323Z,11.37
2022-10-19T02:42:02.885Z,10.50
2022-10-19T02:44:10.578Z,10.60
2022-10-19T02:46:21.277Z,10.60
2022-10-19T02:48:27.895Z,10.03
2022-10-19T02:50:31.404Z,10.47
2022-10-19T02:52:38.131Z,9.83
2022-10-19T02:54:43.881Z,11.30
2022-10-19T02:56:47.131Z,9.10
2022-10-19T02:58:50.628Z,10.77
2022-10-19T03:00:53.886Z,10.50
2022-10-19T03:02:57.506Z,10.10
2022-10-19T03:05:01.004Z,10.57
2022-10-19T03:07:04.803Z,9.00
2022-10-19T03:09:09.629Z,11.50
2022-10-19T03:11:12.919Z,9.97
2022-10-19T03:13:16.208Z,10.67
2022-10-19T03:15:20.318Z,9.00
2022-10-19T03:17:24.018Z,9.20
2022-10-19T03:19:28.025Z,10.83
2022-10-19T03:21:31.321Z,9.13
2022-10-19T03:23:34.738Z,9.00
2022-10-19T03:25:39.368Z,8.23
2022-10-19T03:27:42.661Z,9.43
2022-10-19T03:29:46.111Z,9.23
2022-10-19T03:31:49.705Z,10.10
2022-10-19T03:33:52.996Z,8.10
2022-10-19T03:36:14.429Z,9.00
2022-10-19T03:38:17.802Z,8.20
2022-10-19T03:40:21.298Z,8.17
2022-10-19T03:42:26.091Z,9.23
2022-10-19T03:44:29.422Z,9.60
2022-10-19T03:46:33.121Z,9.10
2022-10-19T03:48:36.706Z,9.07
2022-10-19T03:50:40.022Z,9.80
2022-10-19T03:52:43.192Z,8.90
2022-10-19T03:54:46.422Z,9.90
2022-10-19T03:56:49.765Z,10.10
2022-10-19T03:58:55.101Z,10.97
2022-10-19T04:00:58.514Z,9.37
2022-10-19T04:03:01.802Z,9.27
2022-10-19T04:05:05.503Z,10.83
2022-10-19T04:07:09.156Z,9.60
2022-10-19T04:09:18.412Z,9.53
2022-10-19T04:11:24.162Z,10.83
2022-10-19T04:13:27.382Z,9.83
2022-10-19T04:15:32.386Z,9.50
2022-10-19T04:17:35.782Z,10.23
2022-10-19T04:19:39.293Z,9.50
2022-10-19T04:21:43.913Z,10.03
2022-10-19T04:23:47.187Z,8.93
2022-10-19T04:25:50.569Z,9.83
2022-10-19T04:27:53.962Z,9.60
2022-10-19T04:29:57.171Z,8.17
2022-10-19T04:32:01.881Z,7.53
2022-10-19T04:34:05.335Z,7.93
2022-10-19T04:36:10.933Z,7.90
2022-10-19T04:38:14.110Z,8.43
2022-10-19T04:40:17.491Z,9.30
2022-10-19T04:42:20.932Z,8.63
2022-10-19T04:46:28.715Z,10.30
2022-10-19T04:48:33.717Z,9.23
2022-10-19T04:50:37.017Z,10.83
2022-10-19T04:52:40.761Z,11.67
2022-10-19T04:54:44.049Z,12.53
2022-10-19T04:56:47.293Z,12.20
2022-10-19T04:58:51.190Z,14.00
2022-10-19T05:00:54.531Z,12.90
2022-10-19T05:02:57.786Z,12.13
2022-10-19T05:05:02.922Z,12.00
2022-10-19T05:07:06.440Z,12.13
2022-10-19T05:09:10.018Z,12.30
2022-10-19T05:11:15.407Z,12.13
2022-10-19T05:13:18.942Z,14.63
2022-10-19T05:15:23.045Z,12.70
2022-10-19T05:17:26.335Z,13.93
2022-10-19T05:19:29.934Z,11.03
2022-10-19T05:21:34.767Z,13.60
2022-10-19T05:23:38.573Z,12.87
2022-10-19T05:25:41.833Z,12.20
2022-10-19T05:27:45.043Z,11.83
2022-10-19T05:29:48.952Z,11.10
2022-10-19T05:31:52.538Z,11.83
2022-10-19T05:33:57.545Z,13.03
2022-10-19T05:36:01.105Z,12.57
2022-10-19T05:38:05.732Z,11.23
2022-10-19T05:40:10.652Z,11.33
2022-10-19T05:42:13.910Z,11.43
2022-10-19T05:44:19.034Z,11.73
2022-10-19T05:46:22.330Z,13.00
2022-10-19T05:48:25.953Z,12.90
2022-10-19T05:50:29.634Z,13.80
2022-10-19T05:52:32.896Z,12.63
2022-10-19T05:54:38.341Z,13.13
2022-10-19T05:56:43.162Z,12.47
2022-10-19T05:58:46.986Z,12.50
2022-10-19T06:00:54.410Z,13.33
2022-10-19T06:02:59.177Z,13.03
2022-10-19T06:05:02.695Z,11.53
2022-10-19T06:07:05.964Z,11.80
2022-10-19T06:09:09.870Z,11.00
2022-10-19T06:11:16.959Z,11.00
2022-10-19T06:13:21.539Z,11.50
2022-10-19T06:15:25.384Z,11.00
2022-10-19T06:17:30.318Z,10.33
2022-10-19T06:19:33.726Z,10.87
2022-10-19T06:21:39.565Z,10.00
2022-10-19T06:23:45.330Z,10.00
2022-10-19T06:25:48.628Z,10.30
2022-10-19T06:27:53.186Z,9.50
2022-10-19T06:29:56.419Z,10.90
2022-10-19T06:32:00.382Z,9.50
2022-10-19T06:34:04.045Z,10.17
2022-10-19T06:36:08.262Z,11.83
2022-10-19T06:38:13.833Z,11.37
2022-10-19T06:40:17.248Z,10.20
2022-10-19T06:42:20.517Z,10.83
2022-10-19T06:44:25.253Z,10.47
2022-10-19T06:46:28.906Z,9.67
2022-10-19T06:48:32.191Z,9.47
2022-10-19T06:50:35.450Z,9.93
2022-10-19T06:52:40.687Z,10.37
2022-10-19T06:54:44.195Z,9.13
2022-10-19T06:56:47.438Z,10.10
2022-10-19T06:58:51.049Z,9.50
2022-10-19T07:00:59.002Z,10.37
2022-10-19T07:03:02.332Z,9.97
2022-10-19T07:05:07.271Z,11.33
2022-10-19T07:07:11.211Z,9.20
2022-10-19T07:09:14.950Z,14.33
2022-10-19T07:11:19.467Z,13.90
2022-10-19T07:13:22.986Z,16.67
2022-10-19T07:15:26.479Z,17.10
2022-10-19T07:17:31.503Z,12.13
2022-10-19T07:19:35.601Z,12.03
2022-10-19T07:21:41.760Z,13.07
2022-10-19T07:23:47.269Z,12.77
2022-10-19T07:25:52.615Z,15.63
2022-10-19T07:27:56.253Z,13.60
2022-10-19T07:29:59.517Z,15.00
2022-10-19T07:32:03.018Z,13.20
2022-10-19T07:34:08.075Z,16.63
2022-10-19T07:36:13.511Z,14.83
2022-10-19T07:38:16.800Z,16.57
2022-10-19T07:40:20.500Z,16.90
2022-10-19T07:42:24.291Z,17.40
2022-10-19T07:44:27.953Z,16.03
2022-10-19T07:46:33.786Z,15.97
2022-10-19T07:48:37.197Z,16.00
2022-10-19T07:50:42.353Z,16.27
2022-10-19T07:52:45.565Z,14.93
2022-10-19T07:54:49.878Z,17.37
2022-10-19T07:56:53.091Z,15.60
2022-10-19T07:58:58.262Z,15.83
2022-10-19T08:01:02.826Z,16.13
2022-10-19T08:05:29.244Z,16.47
2022-10-19T08:07:35.648Z,16.63
2022-10-19T08:09:54.646Z,15.87
2022-10-19T08:11:58.743Z,17.00
2022-10-19T08:14:03.238Z,16.83
2022-10-19T08:16:07.401Z,16.00
2022-10-19T08:18:11.496Z,16.03
2022-10-19T08:20:14.784Z,18.13
2022-10-19T08:22:18.116Z,14.67
2022-10-19T08:24:23.270Z,12.90
2022-10-19T08:26:29.242Z,14.10
2022-10-19T08:28:32.383Z,13.73
2022-10-19T08:30:37.441Z,13.83
2022-10-19T08:32:40.687Z,13.90
2022-10-19T08:34:44.164Z,14.97
2022-10-19T08:36:47.663Z,15.20
2022-10-19T08:38:51.521Z,14.90
2022-10-19T08:40:56.493Z,12.93
2022-10-19T08:43:02.075Z,14.83
2022-10-19T08:45:10.858Z,16.10
2022-10-19T08:47:24.328Z,14.17
2022-10-19T08:49:29.763Z,15.97
2022-10-19T08:51:37.146Z,14.23
2022-10-19T08:53:46.845Z,13.10
2022-10-19T08:56:04.633Z,12.37
2022-10-19T08:58:14.903Z,13.47
2022-10-19T09:00:22.965Z,13.47
2022-10-19T09:02:36.660Z,11.53
2022-10-19T09:04:42.922Z,12.20
2022-10-19T09:06:50.637Z,10.70
2022-10-19T09:08:55.215Z,11.10
2022-10-19T09:11:00.716Z,8.10
2022-10-19T09:13:05.438Z,6.80
2022-10-19T09:15:12.484Z,7.80
2022-10-19T09:17:17.055Z,8.50
2022-10-19T09:19:25.908Z,8.87
2022-10-19T09:21:40.839Z,8.57
2022-10-19T09:23:55.180Z,9.60
2022-10-19T09:26:00.261Z,8.83
2022-10-19T09:28:08.741Z,9.60
2022-10-19T09:30:18.746Z,10.30
2022-10-19T09:32:24.033Z,9.50
2022-10-19T09:34:28.722Z,8.10
2022-10-19T09:36:50.127Z,8.00
2022-10-19T09:38:54.346Z,8.50
2022-10-19T09:41:00.353Z,8.17
2022-10-19T09:43:19.488Z,7.73
2022-10-19T09:45:27.720Z,6.83
2022-10-19T09:47:36.209Z,8.30
2022-10-19T09:49:41.978Z,7.17
2022-10-19T09:51:50.595Z,7.63
2022-10-19T09:53:54.987Z,8.40
2022-10-19T09:56:06.287Z,8.43
2022-10-19T09:58:18.354Z,7.90
2022-10-19T10:00:22.593Z,7.47
2022-10-19T10:02:31.838Z,6.90
2022-10-19T10:04:36.545Z,6.87
2022-10-19T10:06:40.833Z,7.57
2022-10-19T10:08:47.624Z,8.53
2022-10-19T10:10:55.321Z,7.80
2022-10-19T10:13:01.703Z,7.80
2022-10-19T10:15:06.410Z,8.27
2022-10-19T10:17:14.563Z,7.70
2022-10-19T10:19:19.079Z,7.93
2022-10-19T10:21:25.713Z,8.13
2022-10-19T10:23:32.263Z,8.23
2022-10-19T10:25:36.777Z,8.23
2022-10-19T10:27:40.885Z,9.13
2022-10-19T10:32:02.275Z,7.73
2022-10-19T10:34:16.334Z,7.70
2022-10-19T10:36:30.010Z,7.87
2022-10-19T10:38:35.400Z,8.23
2022-10-19T10:40:40.765Z,7.80
2022-10-19T10:42:45.493Z,9.30
2022-10-19T10:44:53.098Z,7.60
2022-10-19T10:46:57.968Z,8.13
2022-10-19T10:49:03.472Z,8.13
2022-10-19T10:51:10.946Z,8.80
2022-10-19T10:53:29.393Z,8.70
2022-10-19T10:55:33.390Z,8.40
2022-10-19T10:57:39.606Z,9.03
2022-10-19T10:59:46.968Z,8.33
2022-10-19T11:01:56.509Z,9.00
2022-10-19T11:04:02.732Z,10.23
2022-10-19T11:06:06.281Z,9.33
2022-10-19T11:08:18.630Z,7.90
2022-10-19T11:10:24.343Z,8.43
2022-10-19T11:12:35.184Z,7.53
2022-10-19T11:14:40.838Z,8.27
2022-10-19T11:16:45.606Z,8.90
2022-10-19T11:18:52.252Z,9.93
2022-10-19T11:20:59.670Z,8.23
2022-10-19T11:23:07.764Z,11.07
2022-10-19T11:25:23.442Z,8.17
2022-10-19T11:27:31.453Z,8.90
2022-10-19T11:29:48.555Z,8.43
2022-10-19T11:31:53.591Z,9.17
2022-10-19T11:34:03.448Z,8.10
2022-10-19T11:36:12.689Z,8.90
2022-10-19T11:38:30.232Z,8.20
2022-10-19T11:40:45.850Z,8.33
2022-10-19T11:43:05.045Z,7.97
2022-10-19T11:45:15.322Z,8.70
2022-10-19T11:47:34.252Z,9.10
2022-10-19T11:49:47.730Z,7.20
2022-10-19T11:51:57.495Z,7.40
2022-10-19T11:54:05.695Z,7.60
2022-10-19T11:56:11.292Z,7.50
2022-10-19T11:58:28.901Z,8.30
2022-10-19T12:00:39.498Z,8.70
2022-10-19T12:02:59.413Z,8.37
2022-10-19T12:05:12.730Z,8.53
2022-10-19T12:07:42.482Z,8.67
2022-10-19T12:09:50.050Z,7.90
2022-10-19T12:12:01.086Z,7.77
2022-10-19T12:14:06.030Z,7.43
2022-10-19T12:16:10.466Z,8.17
2022-10-19T12:18:16.478Z,6.40
2022-10-19T12:20:24.213Z,6.77
2022-10-19T12:22:30.288Z,6.70
2022-10-19T12:24:35.504Z,7.40
2022-10-19T12:26:39.233Z,6.77
2022-10-19T12:28:44.893Z,6.80
2022-10-19T12:30:48.701Z,5.70
2022-10-19T12:33:00.557Z,7.27
2022-10-19T12:35:10.491Z,6.30
2022-10-19T12:37:17.666Z,6.00
2022-10-19T12:39:24.437Z,7.37
2022-10-19T12:41:31.219Z,5.60
2022-10-19T12:43:39.668Z,5.10
2022-10-19T12:45:46.512Z,6.20
2022-10-19T12:48:08.775Z,5.60
2022-10-19T12:50:12.370Z,5.17
2022-10-19T12:52:18.450Z,5.97
2022-10-19T12:54:24.318Z,6.10
2022-10-19T12:56:28.341Z,5.20
2022-10-19T12:58:35.916Z,5.23
2022-10-19T13:00:39.961Z,5.60
2022-10-19T13:02:43.843Z,5.00
2022-10-19T13:04:54.568Z,4.57
2022-10-19T13:07:02.654Z,4.53
2022-10-19T13:09:08.828Z,4.70
2022-10-19T13:11:14.993Z,3.87
2022-10-19T13:13:33.272Z,4.10
2022-10-19T13:15:51.828Z,4.63
2022-10-19T13:17:55.375Z,3.90
2022-10-19T13:20:13.822Z,3.80
2022-10-19T13:22:28.517Z,4.30
2022-10-19T13:24:37.997Z,4.03
2022-10-19T13:26:41.670Z,4.20
2022-10-19T13:28:54.464Z,3.10
2022-10-19T13:31:06.259Z,3.63
2022-10-19T13:33:42.369Z,3.80
2022-10-19T13:35:45.940Z,4.80
2022-10-19T13:38:09.705Z,3.60
2022-10-19T13:40:24.539Z,3.77
2022-10-19T13:42:29.711Z,4.70
2022-10-19T13:44:36.679Z,3.70
2022-10-19T13:46:49.256Z,4.00
2022-10-19T13:49:07.934Z,3.80
2022-10-19T13:51:14.880Z,4.03
2022-10-19T13:53:30.027Z,4.10
2022-10-19T13:55:48.475Z,4.27
2022-10-19T13:58:02.906Z,3.90
2022-10-19T14:00:21.059Z,4.07
2022-10-19T14:02:42.235Z,4.20
2022-10-19T14:04:48.715Z,4.73
2022-10-19T14:06:54.406Z,5.30
2022-10-19T14:09:15.138Z,4.07
2022-10-19T14:11:20.306Z,4.47
2022-10-19T14:13:25.454Z,4.10
2022-10-19T14:15:32.889Z,4.90
2022-10-19T14:17:43.117Z,4.30
2022-10-19T14:19:47.325Z,4.70
2022-10-19T14:21:51.056Z,4.50
2022-10-19T14:23:54.521Z,4.73
2022-10-19T14:26:00.246Z,4.23
2022-10-19T14:28:06.693Z,5.00
2022-10-19T14:30:22.422Z,5.17
2022-10-19T14:32:27.242Z,5.23
2022-10-19T14:34:31.116Z,5.27
2022-10-19T14:36:36.685Z,4.70
2022-10-19T14:38:43.428Z,5.83
2022-10-19T14:40:46.854Z,6.37
2022-10-19T14:42:50.820Z,5.20
2022-10-19T14:44:55.656Z,6.00
2022-10-19T14:47:02.375Z,5.50
2022-10-19T14:49:06.836Z,5.90
2022-10-19T14:51:15.955Z,4.90
2022-10-19T14:53:23.692Z,6.07
2022-10-19T14:55:36.889Z,7.80
2022-10-19T14:57:42.682Z,5.87
2022-10-19T14:59:47.690Z,6.13
2022-10-19T15:01:52.093Z,5.07
2022-10-19T15:03:57.245Z,5.90
2022-10-19T15:06:05.471Z,5.67
2022-10-19T15:08:10.208Z,5.80
2022-10-19T15:10:21.861Z,5.43
2022-10-19T15:12:30.674Z,6.20
2022-10-19T15:14:34.298Z,6.40
2022-10-19T15:16:45.302Z,5.20
2022-10-19T15:18:50.330Z,6.27
2022-10-19T15:21:13.048Z,6.70
2022-10-19T15:23:37.409Z,5.40
2022-10-19T15:25:40.861Z,5.37
2022-10-19T15:27:47.482Z,6.13
2022-10-19T15:29:56.289Z,6.13
2022-10-19T15:32:14.934Z,5.80
2022-10-19T15:34:25.596Z,5.47
2022-10-19T15:36:32.021Z,6.80
2022-10-19T15:38:35.887Z,5.40
2022-10-19T15:40:42.080Z,6.10
2022-10-19T15:42:48.646Z,7.13
2022-10-19T15:44:51.902Z,7.77
2022-10-19T15:47:19.449Z,11.57
2022-10-19T15:49:53.911Z,8.60
2022-10-19T15:51:58.457Z,6.83
2022-10-19T15:54:04.736Z,9.00
2022-10-19T15:56:10.554Z,6.67
2022-10-19T15:58:18.058Z,6.10
2022-10-19T16:00:22.154Z,6.20
2022-10-19T16:02:25.445Z,6.63
2022-10-19T16:04:28.766Z,6.83
2022-10-19T16:06:34.768Z,7.07
2022-10-19T16:08:39.741Z,6.33
2022-10-19T16:10:43.169Z,5.70
2022-10-19T16:12:46.326Z,9.20
2022-10-19T16:14:49.482Z,12.70
2022-10-19T16:16:52.709Z,13.17
2022-10-19T16:19:00.039Z,12.67
2022-10-19T16:21:03.914Z,12.60
2022-10-19T16:23:07.159Z,12.43
2022-10-19T16:25:12.009Z,14.63
2022-10-19T16:27:16.418Z,20.33
2022-10-19T16:29:20.454Z,28.10
2022-10-19T16:31:24.534Z,46.17
2022-10-19T16:33:27.818Z,74.90
2022-10-19T16:35:31.168Z,75.67
2022-10-19T16:37:35.072Z,58.87
2022-10-19T16:39:38.695Z,41.30
2022-10-19T16:41:45.039Z,39.30
2022-10-19T16:43:48.634Z,28.10
2022-10-19T16:45:52.019Z,26.07
2022-10-19T16:47:55.263Z,21.07
2022-10-19T16:50:00.964Z,19.33
2022-10-19T16:52:04.271Z,16.37
2022-10-19T16:54:09.274Z,14.80
2022-10-19T16:56:14.737Z,12.03
2022-10-19T16:58:19.292Z,10.63
2022-10-19T17:00:23.195Z,10.37
2022-10-19T17:02:26.939Z,9.23
2022-10-19T17:04:30.154Z,7.47
2022-10-19T17:06:34.623Z,8.13
2022-10-19T17:09:07.385Z,7.50
2022-10-19T17:11:10.757Z,7.17
2022-10-19T17:13:14.067Z,7.43
2022-10-19T17:15:41.559Z,6.60
2022-10-19T17:17:42.504Z,7.13
2022-10-19T17:19:45.701Z,6.63
2022-10-19T17:21:49.590Z,7.17
2022-10-19T17:23:54.123Z,8.23
2022-10-19T17:25:57.513Z,7.90
2022-10-19T17:28:00.790Z,11.00
2022-10-19T17:30:04.300Z,40.83
2022-10-19T17:32:08.925Z,33.93
2022-10-19T17:34:12.402Z,45.33
2022-10-19T17:36:19.071Z,48.03
2022-10-19T17:38:22.500Z,28.63
2022-10-19T17:40:25.757Z,22.00
2022-10-19T17:42:29.080Z,14.40
2022-10-19T17:44:32.785Z,13.77
2022-10-19T17:46:36.866Z,9.77
2022-10-19T17:48:43.126Z,9.20
2022-10-19T17:50:46.491Z,8.17
2022-10-19T17:52:49.898Z,9.33
2022-10-19T17:55:12.780Z,9.50
2022-10-19T17:57:16.811Z,9.43
2022-10-19T17:59:30.071Z,8.00
2022-10-19T18:01:38.862Z,7.33
2022-10-19T18:03:43.994Z,8.10
2022-10-19T18:05:56.330Z,7.30
2022-10-19T18:07:59.861Z,6.77
2022-10-19T18:10:03.612Z,8.67
2022-10-19T18:12:08.742Z,8.07
2022-10-19T18:14:12.889Z,6.63
2022-10-19T18:16:19.496Z,7.27
2022-10-19T18:18:24.548Z,6.63
2022-10-19T18:20:29.686Z,6.53
2022-10-19T18:22:33.110Z,6.80
2022-10-19T18:24:36.343Z,7.10
2022-10-19T18:26:40.515Z,6.53
2022-10-19T18:28:44.471Z,7.93
2022-10-19T18:30:47.998Z,7.53
2022-10-19T18:32:51.578Z,9.47
2022-10-19T18:34:54.865Z,7.70
2022-10-19T18:36:59.462Z,7.40
2022-10-19T18:39:05.823Z,7.77
2022-10-19T18:41:15.125Z,7.10
2022-10-19T18:43:18.523Z,8.30
2022-10-19T18:45:21.913Z,7.17
2022-10-19T18:47:25.187Z,9.27
2022-10-19T18:49:28.579Z,8.30
2022-10-19T18:51:32.017Z,8.77
2022-10-19T18:53:36.998Z,8.00
2022-10-19T18:55:40.290Z,8.57
2022-10-19T18:57:43.584Z,8.43
2022-10-19T18:59:47.376Z,7.80
2022-10-19T19:01:50.909Z,7.50
2022-10-19T19:03:55.199Z,7.70
2022-10-19T19:06:00.956Z,8.23
2022-10-19T19:08:04.441Z,5.93
2022-10-19T19:10:09.873Z,6.83
2022-10-19T19:12:14.464Z,6.40
2022-10-19T19:14:21.156Z,7.80
2022-10-19T19:16:24.933Z,7.33
2022-10-19T19:18:29.307Z,7.17
2022-10-19T19:20:32.560Z,7.27
2022-10-19T19:22:36.426Z,6.67
2022-10-19T19:24:42.086Z,5.70
2022-10-19T19:26:49.414Z,5.73
2022-10-19T19:28:52.577Z,6.23
2022-10-19T19:30:56.040Z,6.17
2022-10-19T19:32:59.842Z,6.10
2022-10-19T19:35:03.164Z,5.70
2022-10-19T19:37:08.932Z,6.70
2022-10-19T19:39:14.875Z,5.63
2022-10-19T19:41:18.321Z,6.83
2022-10-19T19:43:22.856Z,6.07
2022-10-19T19:45:26.064Z,5.50
2022-10-19T19:47:29.317Z,6.80
2022-10-19T19:49:32.648Z,6.83
2022-10-19T19:51:36.105Z,5.40
2022-10-19T19:53:39.695Z,6.90
2022-10-19T19:55:42.928Z,7.07
2022-10-19T19:57:49.864Z,5.40
2022-10-19T19:59:54.414Z,8.00
2022-10-19T20:01:57.929Z,6.13
2022-10-19T20:06:11.463Z,6.67
2022-10-19T20:08:14.573Z,7.20
2022-10-19T20:10:18.146Z,6.97
2022-10-19T20:12:21.250Z,6.77
2022-10-19T20:14:24.495Z,7.23
2022-10-19T20:16:31.901Z,7.70
2022-10-19T20:18:35.153Z,6.83
2022-10-19T20:20:38.342Z,6.43
2022-10-19T20:22:46.075Z,7.30
2022-10-19T20:24:49.479Z,7.17
2022-10-19T20:26:52.866Z,8.30
2022-10-19T20:28:56.448Z,5.90
2022-10-19T20:31:03.636Z,7.07
2022-10-19T20:33:08.258Z,7.40
2022-10-19T20:35:11.645Z,7.83
2022-10-19T20:37:14.972Z,7.10
2022-10-19T20:39:18.105Z,6.87
2022-10-19T20:41:22.620Z,7.57
2022-10-19T20:43:25.802Z,7.47
2022-10-19T20:45:28.980Z,7.80
2022-10-19T20:47:32.251Z,9.90
2022-10-19T20:49:37.058Z,8.57
2022-10-19T20:51:40.485Z,8.13
2022-10-19T20:53:46.300Z,8.10
2022-10-19T20:55:49.441Z,9.23
2022-10-19T20:57:52.598Z,8.33
2022-10-19T20:59:55.803Z,8.77
2022-10-19T21:01:59.123Z,9.10
2022-10-19T21:04:05.385Z,8.80
2022-10-19T21:06:10.694Z,8.53
2022-10-19T21:08:15.887Z,9.50
2022-10-19T21:10:19.399Z,7.73
2022-10-19T21:12:25.913Z,8.50
2022-10-19T21:14:30.360Z,9.27
2022-10-19T21:16:35.241Z,8.70
2022-10-19T21:18:38.723Z,8.90
2022-10-19T21:20:42.174Z,8.53
2022-10-19T21:22:46.836Z,8.33
2022-10-19T21:24:49.957Z,8.00
2022-10-19T21:26:53.499Z,8.10
2022-10-19T21:28:57.133Z,7.67
2022-10-19T21:31:04.176Z,9.50
2022-10-19T21:33:07.298Z,8.30
2022-10-19T21:35:10.670Z,7.63
2022-10-19T21:37:14.094Z,7.63
2022-10-19T21:39:19.207Z,9.30
2022-10-19T21:41:26.209Z,8.10
2022-10-19T21:43:30.322Z,8.20
2022-10-19T21:45:33.690Z,7.87
2022-10-19T21:47:37.838Z,7.63
2022-10-19T21:49:41.187Z,7.33
2022-10-19T21:51:46.109Z,7.37
2022-10-19T21:53:49.326Z,7.43
2022-10-19T21:55:54.922Z,8.70
2022-10-19T21:57:58.056Z,7.60
2022-10-19T22:00:01.317Z,7.03
2022-10-19T22:02:04.548Z,6.97
2022-10-19T22:04:09.991Z,7.30
2022-10-19T22:06:14.157Z,7.00
2022-10-19T22:08:17.529Z,8.10
2022-10-19T22:10:20.674Z,7.87
2022-10-19T22:12:25.483Z,7.00
2022-10-19T22:14:28.710Z,7.70
2022-10-19T22:16:33.337Z,7.57
2022-10-19T22:18:36.776Z,6.90
2022-10-19T22:20:41.059Z,7.77
2022-10-19T22:22:44.436Z,7.20
2022-10-19T22:24:47.584Z,6.77
2022-10-19T22:26:51.768Z,7.07
2022-10-19T22:28:57.492Z,6.10
2022-10-19T22:31:01.071Z,5.80
2022-10-19T22:33:04.466Z,6.00
2022-10-19T22:35:07.916Z,5.90
2022-10-19T22:37:11.316Z,6.73
2022-10-19T22:39:15.033Z,6.30
2022-10-19T22:41:18.186Z,5.50
2022-10-19T22:43:21.598Z,5.70
2022-10-19T22:45:26.225Z,5.93
2022-10-19T22:47:29.381Z,5.77
2022-10-19T22:49:33.039Z,5.53
2022-10-19T22:51:36.322Z,5.50
2022-10-19T22:53:39.579Z,6.00
2022-10-19T22:55:42.867Z,5.40
2022-10-19T22:57:45.990Z,5.60
2022-10-19T22:59:49.119Z,5.07
2022-10-19T23:01:53.730Z,6.10
2022-10-19T23:03:57.377Z,4.97
2022-10-19T23:06:00.786Z,6.43
2022-10-19T23:08:04.220Z,4.73
2022-10-19T23:10:08.214Z,5.97
2022-10-19T23:12:11.387Z,5.00
2022-10-19T23:14:14.530Z,5.53
2022-10-19T23:16:17.801Z,5.60
2022-10-19T23:18:22.824Z,5.50
2022-10-19T23:20:25.993Z,5.33
2022-10-19T23:22:29.226Z,4.70
2022-10-19T23:24:32.513Z,5.00
2022-10-19T23:26:35.702Z,6.47
2022-10-19T23:28:40.944Z,3.80
2022-10-19T23:30:44.431Z,4.63
2022-10-19T23:32:47.752Z,4.90
2022-10-19T23:34:52.368Z,4.50
2022-10-19T23:36:55.485Z,5.13
2022-10-19T23:38:59.465Z,5.37
2022-10-19T23:41:03.083Z,4.70
2022-10-19T23:43:06.269Z,6.37
2022-10-19T23:45:10.146Z,6.50
2022-10-19T23:47:13.288Z,5.37
2022-10-19T23:49:16.580Z,4.17
2022-10-19T23:51:22.805Z,5.00
2022-10-19T23:53:26.233Z,4.90
2022-10-19T23:55:29.576Z,4.33
2022-10-19T23:57:32.951Z,5.07
2022-10-19T23:59:36.329Z,4.80
